sensor_id;sensor_type;location;lat;lon;timestamp;P1;durP1;ratioP1;P2;durP2;ratioP2
13263;SDS011;6700;51.988;7.646;2023-08-17T00:00:30;3.07;;;2.10;;
13263;SDS011;6700;51.988;7.646;2023-08-17T00:02:57;3.03;;;2.33;;
13263;SDS011;6700;51.988;7.646;2023-08-17T00:05:24;4.40;;;2.50;;
13263;SDS011;6700;51.988;7.646;2023-08-17T00:07:52;5.73;;;2.10;;
13263;SDS011;6700;51.988;7.646;2023-08-17T00:10:20;3.22;;;2.45;;
13263;SDS011;6700;51.988;7.646;2023-08-17T00:12:47;4.10;;;2.40;;
13263;SDS011;6700;51.988;7.646;2023-08-17T00:15:14;4.65;;;2.40;;
13263;SDS011;6700;51.988;7.646;2023-08-17T00:17:42;5.20;;;2.97;;
13263;SDS011;6700;51.988;7.646;2023-08-17T00:20:09;4.37;;;2.77;;
13263;SDS011;6700;51.988;7.646;2023-08-17T00:22:36;5.30;;;2.67;;
13263;SDS011;6700;51.988;7.646;2023-08-17T00:25:03;8.17;;;2.80;;
13263;SDS011;6700;51.988;7.646;2023-08-17T00:27:33;5.57;;;2.23;;
13263;SDS011;6700;51.988;7.646;2023-08-17T00:30:00;4.40;;;2.70;;
13263;SDS011;6700;51.988;7.646;2023-08-17T00:32:29;5.97;;;2.90;;
13263;SDS011;6700;51.988;7.646;2023-08-17T00:34:57;2.93;;;2.27;;
13263;SDS011;6700;51.988;7.646;2023-08-17T00:37:24;4.27;;;2.50;;
13263;SDS011;6700;51.988;7.646;2023-08-17T00:39:52;6.00;;;2.33;;
13263;SDS011;6700;51.988;7.646;2023-08-17T00:42:19;3.53;;;2.27;;
13263;SDS011;6700;51.988;7.646;2023-08-17T00:44:46;6.00;;;2.53;;
13263;SDS011;6700;51.988;7.646;2023-08-17T00:47:17;3.33;;;2.23;;
13263;SDS011;6700;51.988;7.646;2023-08-17T00:49:47;2.77;;;2.13;;
13263;SDS011;6700;51.988;7.646;2023-08-17T00:52:19;3.33;;;2.00;;
13263;SDS011;6700;51.988;7.646;2023-08-17T00:54:46;2.57;;;2.30;;
13263;SDS011;6700;51.988;7.646;2023-08-17T00:57:15;6.90;;;2.67;;
13263;SDS011;6700;51.988;7.646;2023-08-17T00:59:42;3.03;;;2.47;;
13263;SDS011;6700;51.988;7.646;2023-08-17T01:02:28;5.13;;;2.17;;
13263;SDS011;6700;51.988;7.646;2023-08-17T01:04:57;4.00;;;2.67;;
13263;SDS011;6700;51.988;7.646;2023-08-17T01:07:24;7.57;;;2.33;;
13263;SDS011;6700;51.988;7.646;2023-08-17T01:09:52;2.43;;;2.23;;
13263;SDS011;6700;51.988;7.646;2023-08-17T01:12:28;4.20;;;2.33;;
13263;SDS011;6700;51.988;7.646;2023-08-17T01:15:01;5.67;;;2.57;;
13263;SDS011;6700;51.988;7.646;2023-08-17T01:17:33;3.80;;;2.50;;
13263;SDS011;6700;51.988;7.646;2023-08-17T01:20:00;3.00;;;2.53;;
13263;SDS011;6700;51.988;7.646;2023-08-17T01:22:30;4.67;;;2.17;;
13263;SDS011;6700;51.988;7.646;2023-08-17T01:25:01;6.97;;;2.80;;
13263;SDS011;6700;51.988;7.646;2023-08-17T01:27:35;2.50;;;1.90;;
13263;SDS011;6700;51.988;7.646;2023-08-17T01:30:03;2.73;;;2.30;;
13263;SDS011;6700;51.988;7.646;2023-08-17T01:32:37;2.70;;;2.33;;
13263;SDS011;6700;51.988;7.646;2023-08-17T01:35:11;4.20;;;2.47;;
13263;SDS011;6700;51.988;7.646;2023-08-17T01:37:41;6.50;;;2.37;;
13263;SDS011;6700;51.988;7.646;2023-08-17T01:40:11;7.30;;;2.60;;
13263;SDS011;6700;51.988;7.646;2023-08-17T01:42:39;2.93;;;2.27;;
13263;SDS011;6700;51.988;7.646;2023-08-17T01:45:07;7.13;;;2.30;;
13263;SDS011;6700;51.988;7.646;2023-08-17T01:47:36;3.47;;;1.90;;
13263;SDS011;6700;51.988;7.646;2023-08-17T01:50:04;4.13;;;2.30;;
13263;SDS011;6700;51.988;7.646;2023-08-17T01:52:31;3.47;;;2.07;;
13263;SDS011;6700;51.988;7.646;2023-08-17T01:54:58;4.13;;;1.90;;
13263;SDS011;6700;51.988;7.646;2023-08-17T01:57:27;3.47;;;2.30;;
13263;SDS011;6700;51.988;7.646;2023-08-17T01:59:54;4.77;;;2.07;;
13263;SDS011;6700;51.988;7.646;2023-08-17T02:02:21;2.87;;;2.30;;
13263;SDS011;6700;51.988;7.646;2023-08-17T02:04:49;4.67;;;2.60;;
13263;SDS011;6700;51.988;7.646;2023-08-17T02:07:16;4.73;;;2.33;;
13263;SDS011;6700;51.988;7.646;2023-08-17T02:09:43;2.67;;;2.30;;
13263;SDS011;6700;51.988;7.646;2023-08-17T02:12:10;5.70;;;2.30;;
13263;SDS011;6700;51.988;7.646;2023-08-17T02:14:38;9.37;;;2.60;;
13263;SDS011;6700;51.988;7.646;2023-08-17T02:17:06;5.93;;;2.70;;
13263;SDS011;6700;51.988;7.646;2023-08-17T02:19:34;5.13;;;2.50;;
13263;SDS011;6700;51.988;7.646;2023-08-17T02:22:01;2.93;;;2.63;;
13263;SDS011;6700;51.988;7.646;2023-08-17T02:24:28;7.73;;;2.70;;
13263;SDS011;6700;51.988;7.646;2023-08-17T02:26:56;3.83;;;2.77;;
13263;SDS011;6700;51.988;7.646;2023-08-17T02:29:23;5.83;;;2.70;;
13263;SDS011;6700;51.988;7.646;2023-08-17T02:31:50;4.17;;;2.50;;
13263;SDS011;6700;51.988;7.646;2023-08-17T02:34:17;6.60;;;2.37;;
13263;SDS011;6700;51.988;7.646;2023-08-17T02:36:44;3.53;;;2.73;;
13263;SDS011;6700;51.988;7.646;2023-08-17T02:39:11;2.83;;;2.63;;
13263;SDS011;6700;51.988;7.646;2023-08-17T02:41:38;4.60;;;2.93;;
13263;SDS011;6700;51.988;7.646;2023-08-17T02:44:06;5.90;;;3.17;;
13263;SDS011;6700;51.988;7.646;2023-08-17T02:46:33;5.23;;;3.27;;
13263;SDS011;6700;51.988;7.646;2023-08-17T02:49:00;4.20;;;2.93;;
13263;SDS011;6700;51.988;7.646;2023-08-17T02:51:27;5.13;;;3.30;;
13263;SDS011;6700;51.988;7.646;2023-08-17T02:53:54;6.67;;;3.00;;
13263;SDS011;6700;51.988;7.646;2023-08-17T02:56:22;5.07;;;3.00;;
13263;SDS011;6700;51.988;7.646;2023-08-17T02:58:50;7.23;;;3.40;;
13263;SDS011;6700;51.988;7.646;2023-08-17T03:01:18;6.17;;;2.73;;
13263;SDS011;6700;51.988;7.646;2023-08-17T03:03:45;6.37;;;3.33;;
13263;SDS011;6700;51.988;7.646;2023-08-17T03:06:13;3.77;;;3.30;;
13263;SDS011;6700;51.988;7.646;2023-08-17T03:08:41;4.83;;;3.03;;
13263;SDS011;6700;51.988;7.646;2023-08-17T03:11:08;3.73;;;3.00;;
13263;SDS011;6700;51.988;7.646;2023-08-17T03:13:36;6.30;;;3.50;;
13263;SDS011;6700;51.988;7.646;2023-08-17T03:16:03;4.70;;;3.03;;
13263;SDS011;6700;51.988;7.646;2023-08-17T03:18:30;9.60;;;3.90;;
13263;SDS011;6700;51.988;7.646;2023-08-17T03:20:57;7.70;;;3.37;;
13263;SDS011;6700;51.988;7.646;2023-08-17T03:23:27;3.87;;;3.40;;
13263;SDS011;6700;51.988;7.646;2023-08-17T03:25:54;3.47;;;3.17;;
13263;SDS011;6700;51.988;7.646;2023-08-17T03:28:21;4.00;;;3.07;;
13263;SDS011;6700;51.988;7.646;2023-08-17T03:30:48;5.47;;;3.23;;
13263;SDS011;6700;51.988;7.646;2023-08-17T03:33:17;6.17;;;3.30;;
13263;SDS011;6700;51.988;7.646;2023-08-17T03:35:45;3.80;;;2.80;;
13263;SDS011;6700;51.988;7.646;2023-08-17T03:38:12;7.40;;;3.70;;
13263;SDS011;6700;51.988;7.646;2023-08-17T03:40:40;12.77;;;3.30;;
13263;SDS011;6700;51.988;7.646;2023-08-17T03:43:07;4.70;;;2.83;;
13263;SDS011;6700;51.988;7.646;2023-08-17T03:45:35;5.13;;;3.30;;
13263;SDS011;6700;51.988;7.646;2023-08-17T03:48:02;6.40;;;3.30;;
13263;SDS011;6700;51.988;7.646;2023-08-17T03:50:30;5.03;;;3.43;;
13263;SDS011;6700;51.988;7.646;2023-08-17T03:52:58;6.33;;;3.37;;
13263;SDS011;6700;51.988;7.646;2023-08-17T03:55:26;7.73;;;2.50;;
13263;SDS011;6700;51.988;7.646;2023-08-17T03:57:55;6.27;;;3.50;;
13263;SDS011;6700;51.988;7.646;2023-08-17T04:00:23;5.50;;;3.53;;
13263;SDS011;6700;51.988;7.646;2023-08-17T04:02:50;6.30;;;3.17;;
13263;SDS011;6700;51.988;7.646;2023-08-17T04:05:17;4.80;;;3.50;;
13263;SDS011;6700;51.988;7.646;2023-08-17T04:07:45;8.53;;;3.80;;
13263;SDS011;6700;51.988;7.646;2023-08-17T04:10:13;5.97;;;4.20;;
13263;SDS011;6700;51.988;7.646;2023-08-17T04:12:41;5.93;;;4.43;;
13263;SDS011;6700;51.988;7.646;2023-08-17T04:15:09;9.03;;;4.67;;
13263;SDS011;6700;51.988;7.646;2023-08-17T04:17:37;5.83;;;3.63;;
13263;SDS011;6700;51.988;7.646;2023-08-17T04:20:05;6.90;;;3.93;;
13263;SDS011;6700;51.988;7.646;2023-08-17T04:22:32;10.13;;;4.40;;
13263;SDS011;6700;51.988;7.646;2023-08-17T04:24:59;4.80;;;4.10;;
13263;SDS011;6700;51.988;7.646;2023-08-17T04:27:26;4.57;;;4.00;;
13263;SDS011;6700;51.988;7.646;2023-08-17T04:29:55;7.73;;;3.87;;
13263;SDS011;6700;51.988;7.646;2023-08-17T04:32:22;4.40;;;4.00;;
13263;SDS011;6700;51.988;7.646;2023-08-17T04:34:49;9.50;;;4.60;;
13263;SDS011;6700;51.988;7.646;2023-08-17T04:37:20;6.23;;;4.33;;
13263;SDS011;6700;51.988;7.646;2023-08-17T04:39:48;5.90;;;4.60;;
13263;SDS011;6700;51.988;7.646;2023-08-17T04:42:15;7.07;;;4.20;;
13263;SDS011;6700;51.988;7.646;2023-08-17T04:44:42;7.07;;;3.87;;
13263;SDS011;6700;51.988;7.646;2023-08-17T04:47:09;9.23;;;3.57;;
13263;SDS011;6700;51.988;7.646;2023-08-17T04:49:36;4.80;;;4.10;;
13263;SDS011;6700;51.988;7.646;2023-08-17T04:52:04;6.20;;;3.90;;
13263;SDS011;6700;51.988;7.646;2023-08-17T04:54:31;6.90;;;5.50;;
13263;SDS011;6700;51.988;7.646;2023-08-17T04:56:58;8.60;;;4.53;;
13263;SDS011;6700;51.988;7.646;2023-08-17T04:59:28;5.57;;;4.23;;
13263;SDS011;6700;51.988;7.646;2023-08-17T05:01:55;6.63;;;3.93;;
13263;SDS011;6700;51.988;7.646;2023-08-17T05:04:22;7.33;;;3.43;;
13263;SDS011;6700;51.988;7.646;2023-08-17T05:06:49;5.17;;;3.87;;
13263;SDS011;6700;51.988;7.646;2023-08-17T05:09:16;8.23;;;4.50;;
13263;SDS011;6700;51.988;7.646;2023-08-17T05:11:44;5.60;;;4.40;;
13263;SDS011;6700;51.988;7.646;2023-08-17T05:14:11;8.87;;;3.93;;
13263;SDS011;6700;51.988;7.646;2023-08-17T05:16:38;5.23;;;4.40;;
13263;SDS011;6700;51.988;7.646;2023-08-17T05:19:05;7.37;;;4.10;;
13263;SDS011;6700;51.988;7.646;2023-08-17T05:21:34;5.87;;;3.93;;
13263;SDS011;6700;51.988;7.646;2023-08-17T05:24:02;5.90;;;3.87;;
13263;SDS011;6700;51.988;7.646;2023-08-17T05:26:29;9.00;;;4.40;;
13263;SDS011;6700;51.988;7.646;2023-08-17T05:28:56;7.60;;;4.13;;
13263;SDS011;6700;51.988;7.646;2023-08-17T05:31:23;4.37;;;3.97;;
13263;SDS011;6700;51.988;7.646;2023-08-17T05:33:51;7.27;;;4.03;;
13263;SDS011;6700;51.988;7.646;2023-08-17T05:36:18;11.70;;;4.73;;
13263;SDS011;6700;51.988;7.646;2023-08-17T05:38:45;5.43;;;4.03;;
13263;SDS011;6700;51.988;7.646;2023-08-17T05:41:12;4.70;;;4.20;;
13263;SDS011;6700;51.988;7.646;2023-08-17T05:43:39;6.40;;;4.10;;
13263;SDS011;6700;51.988;7.646;2023-08-17T05:46:06;4.33;;;3.83;;
13263;SDS011;6700;51.988;7.646;2023-08-17T05:48:34;6.53;;;4.30;;
13263;SDS011;6700;51.988;7.646;2023-08-17T05:51:01;7.03;;;4.60;;
13263;SDS011;6700;51.988;7.646;2023-08-17T05:53:28;7.23;;;4.37;;
13263;SDS011;6700;51.988;7.646;2023-08-17T05:55:55;9.93;;;4.87;;
13263;SDS011;6700;51.988;7.646;2023-08-17T05:58:23;4.50;;;3.67;;
13263;SDS011;6700;51.988;7.646;2023-08-17T06:00:50;6.17;;;4.03;;
13263;SDS011;6700;51.988;7.646;2023-08-17T06:03:17;6.93;;;4.47;;
13263;SDS011;6700;51.988;7.646;2023-08-17T06:05:45;4.87;;;4.13;;
13263;SDS011;6700;51.988;7.646;2023-08-17T06:08:12;6.07;;;4.00;;
13263;SDS011;6700;51.988;7.646;2023-08-17T06:10:39;6.60;;;4.63;;
13263;SDS011;6700;51.988;7.646;2023-08-17T06:13:07;5.40;;;4.53;;
13263;SDS011;6700;51.988;7.646;2023-08-17T06:15:34;8.80;;;4.10;;
13263;SDS011;6700;51.988;7.646;2023-08-17T06:18:01;4.93;;;3.80;;
13263;SDS011;6700;51.988;7.646;2023-08-17T06:20:29;11.17;;;9.60;;
13263;SDS011;6700;51.988;7.646;2023-08-17T06:22:56;5.97;;;5.10;;
13263;SDS011;6700;51.988;7.646;2023-08-17T06:25:26;5.77;;;4.40;;
13263;SDS011;6700;51.988;7.646;2023-08-17T06:27:53;5.67;;;4.07;;
13263;SDS011;6700;51.988;7.646;2023-08-17T06:30:21;5.83;;;3.93;;
13263;SDS011;6700;51.988;7.646;2023-08-17T06:32:50;5.07;;;3.97;;
13263;SDS011;6700;51.988;7.646;2023-08-17T06:35:17;4.30;;;3.87;;
13263;SDS011;6700;51.988;7.646;2023-08-17T06:37:44;6.63;;;4.13;;
13263;SDS011;6700;51.988;7.646;2023-08-17T06:40:12;7.80;;;4.63;;
13263;SDS011;6700;51.988;7.646;2023-08-17T06:42:39;8.57;;;3.80;;
13263;SDS011;6700;51.988;7.646;2023-08-17T06:45:06;9.63;;;4.17;;
13263;SDS011;6700;51.988;7.646;2023-08-17T06:47:34;6.03;;;4.03;;
13263;SDS011;6700;51.988;7.646;2023-08-17T06:50:01;5.43;;;3.87;;
13263;SDS011;6700;51.988;7.646;2023-08-17T06:52:28;3.43;;;3.13;;
13263;SDS011;6700;51.988;7.646;2023-08-17T06:54:55;5.20;;;3.67;;
13263;SDS011;6700;51.988;7.646;2023-08-17T06:57:23;5.33;;;3.83;;
13263;SDS011;6700;51.988;7.646;2023-08-17T06:59:50;7.40;;;5.10;;
13263;SDS011;6700;51.988;7.646;2023-08-17T07:02:17;5.93;;;4.03;;
13263;SDS011;6700;51.988;7.646;2023-08-17T07:04:44;7.90;;;4.33;;
13263;SDS011;6700;51.988;7.646;2023-08-17T07:07:12;11.20;;;4.20;;
13263;SDS011;6700;51.988;7.646;2023-08-17T07:09:40;8.57;;;4.30;;
13263;SDS011;6700;51.988;7.646;2023-08-17T07:12:07;9.17;;;4.07;;
13263;SDS011;6700;51.988;7.646;2023-08-17T07:14:34;6.33;;;4.33;;
13263;SDS011;6700;51.988;7.646;2023-08-17T07:17:01;4.73;;;3.80;;
13263;SDS011;6700;51.988;7.646;2023-08-17T07:19:29;6.20;;;3.70;;
13263;SDS011;6700;51.988;7.646;2023-08-17T07:22:16;6.17;;;3.80;;
13263;SDS011;6700;51.988;7.646;2023-08-17T07:24:43;5.47;;;4.20;;
13263;SDS011;6700;51.988;7.646;2023-08-17T07:27:12;4.70;;;3.93;;
13263;SDS011;6700;51.988;7.646;2023-08-17T07:29:39;8.37;;;4.10;;
13263;SDS011;6700;51.988;7.646;2023-08-17T07:32:06;8.53;;;4.20;;
13263;SDS011;6700;51.988;7.646;2023-08-17T07:34:34;6.17;;;4.60;;
13263;SDS011;6700;51.988;7.646;2023-08-17T07:37:04;7.03;;;4.20;;
13263;SDS011;6700;51.988;7.646;2023-08-17T07:39:34;7.77;;;4.27;;
13263;SDS011;6700;51.988;7.646;2023-08-17T07:42:01;4.87;;;4.13;;
13263;SDS011;6700;51.988;7.646;2023-08-17T07:44:29;7.10;;;4.00;;
13263;SDS011;6700;51.988;7.646;2023-08-17T07:46:57;7.57;;;4.10;;
13263;SDS011;6700;51.988;7.646;2023-08-17T07:49:25;5.53;;;3.90;;
13263;SDS011;6700;51.988;7.646;2023-08-17T07:51:58;7.47;;;4.20;;
13263;SDS011;6700;51.988;7.646;2023-08-17T07:54:25;13.60;;;4.20;;
13263;SDS011;6700;51.988;7.646;2023-08-17T07:56:52;6.97;;;3.80;;
13263;SDS011;6700;51.988;7.646;2023-08-17T07:59:20;6.90;;;4.63;;
13263;SDS011;6700;51.988;7.646;2023-08-17T08:01:47;6.83;;;4.97;;
13263;SDS011;6700;51.988;7.646;2023-08-17T08:04:14;7.00;;;4.60;;
13263;SDS011;6700;51.988;7.646;2023-08-17T08:06:41;6.60;;;4.70;;
13263;SDS011;6700;51.988;7.646;2023-08-17T08:09:09;8.13;;;4.80;;
13263;SDS011;6700;51.988;7.646;2023-08-17T08:11:37;8.17;;;6.07;;
13263;SDS011;6700;51.988;7.646;2023-08-17T08:14:04;6.63;;;4.87;;
13263;SDS011;6700;51.988;7.646;2023-08-17T08:16:32;6.60;;;4.77;;
13263;SDS011;6700;51.988;7.646;2023-08-17T08:18:59;8.57;;;5.63;;
13263;SDS011;6700;51.988;7.646;2023-08-17T08:21:26;5.97;;;4.90;;
13263;SDS011;6700;51.988;7.646;2023-08-17T08:23:54;12.77;;;5.60;;
13263;SDS011;6700;51.988;7.646;2023-08-17T08:26:21;7.77;;;5.77;;
13263;SDS011;6700;51.988;7.646;2023-08-17T08:28:48;11.27;;;5.40;;
13263;SDS011;6700;51.988;7.646;2023-08-17T08:31:16;8.93;;;5.80;;
13263;SDS011;6700;51.988;7.646;2023-08-17T08:33:43;10.00;;;5.97;;
13263;SDS011;6700;51.988;7.646;2023-08-17T08:36:11;12.57;;;5.57;;
13263;SDS011;6700;51.988;7.646;2023-08-17T08:38:38;7.65;;;5.45;;
13263;SDS011;6700;51.988;7.646;2023-08-17T08:41:06;9.45;;;6.20;;
13263;SDS011;6700;51.988;7.646;2023-08-17T08:43:35;8.55;;;5.97;;
13263;SDS011;6700;51.988;7.646;2023-08-17T08:46:02;9.80;;;5.33;;
13263;SDS011;6700;51.988;7.646;2023-08-17T08:48:33;10.43;;;6.20;;
13263;SDS011;6700;51.988;7.646;2023-08-17T08:51:02;9.20;;;5.93;;
13263;SDS011;6700;51.988;7.646;2023-08-17T08:53:31;8.67;;;5.77;;
13263;SDS011;6700;51.988;7.646;2023-08-17T08:56:01;7.43;;;6.20;;
13263;SDS011;6700;51.988;7.646;2023-08-17T08:58:31;8.37;;;6.30;;
13263;SDS011;6700;51.988;7.646;2023-08-17T09:00:58;8.63;;;6.07;;
13263;SDS011;6700;51.988;7.646;2023-08-17T09:03:27;8.53;;;5.30;;
13263;SDS011;6700;51.988;7.646;2023-08-17T09:05:54;11.55;;;6.43;;
13263;SDS011;6700;51.988;7.646;2023-08-17T09:08:22;7.28;;;6.47;;
13263;SDS011;6700;51.988;7.646;2023-08-17T09:10:50;9.07;;;5.90;;
13263;SDS011;6700;51.988;7.646;2023-08-17T09:13:17;10.55;;;6.47;;
13263;SDS011;6700;51.988;7.646;2023-08-17T09:15:45;8.00;;;6.00;;
13263;SDS011;6700;51.988;7.646;2023-08-17T09:18:15;8.95;;;6.25;;
13263;SDS011;6700;51.988;7.646;2023-08-17T09:20:44;8.35;;;5.97;;
13263;SDS011;6700;51.988;7.646;2023-08-17T09:23:15;8.45;;;5.90;;
13263;SDS011;6700;51.988;7.646;2023-08-17T09:25:43;9.50;;;6.88;;
13263;SDS011;6700;51.988;7.646;2023-08-17T09:28:11;9.30;;;6.03;;
13263;SDS011;6700;51.988;7.646;2023-08-17T09:30:49;7.43;;;5.80;;
13263;SDS011;6700;51.988;7.646;2023-08-17T09:33:18;8.63;;;5.82;;
13263;SDS011;6700;51.988;7.646;2023-08-17T09:35:45;8.38;;;6.25;;
13263;SDS011;6700;51.988;7.646;2023-08-17T09:38:12;9.88;;;6.25;;
13263;SDS011;6700;51.988;7.646;2023-08-17T09:40:39;7.15;;;5.22;;
13263;SDS011;6700;51.988;7.646;2023-08-17T09:43:06;6.57;;;5.47;;
13263;SDS011;6700;51.988;7.646;2023-08-17T09:45:35;10.48;;;6.15;;
13263;SDS011;6700;51.988;7.646;2023-08-17T09:48:02;9.00;;;7.03;;
13263;SDS011;6700;51.988;7.646;2023-08-17T09:50:29;7.03;;;6.43;;
13263;SDS011;6700;51.988;7.646;2023-08-17T09:52:57;7.05;;;6.28;;
13263;SDS011;6700;51.988;7.646;2023-08-17T09:55:25;9.98;;;6.30;;
13263;SDS011;6700;51.988;7.646;2023-08-17T09:57:55;7.97;;;5.68;;
13263;SDS011;6700;51.988;7.646;2023-08-17T10:00:22;7.47;;;6.65;;
13263;SDS011;6700;51.988;7.646;2023-08-17T10:02:50;11.75;;;7.18;;
13263;SDS011;6700;51.988;7.646;2023-08-17T10:05:18;9.10;;;6.50;;
13263;SDS011;6700;51.988;7.646;2023-08-17T10:07:53;8.90;;;7.25;;
13263;SDS011;6700;51.988;7.646;2023-08-17T10:10:22;8.70;;;6.28;;
13263;SDS011;6700;51.988;7.646;2023-08-17T10:13:03;11.63;;;6.53;;
13263;SDS011;6700;51.988;7.646;2023-08-17T10:18:28;8.90;;;6.25;;
13263;SDS011;6700;51.988;7.646;2023-08-17T10:21:02;10.13;;;7.32;;
13263;SDS011;6700;51.988;7.646;2023-08-17T10:23:31;9.43;;;7.40;;
13263;SDS011;6700;51.988;7.646;2023-08-17T10:26:00;14.05;;;6.78;;
13263;SDS011;6700;51.988;7.646;2023-08-17T10:28:31;9.68;;;7.43;;
13263;SDS011;6700;51.988;7.646;2023-08-17T10:30:58;9.65;;;7.30;;
13263;SDS011;6700;51.988;7.646;2023-08-17T10:33:27;9.32;;;7.15;;
13263;SDS011;6700;51.988;7.646;2023-08-17T10:35:55;11.55;;;6.85;;
13263;SDS011;6700;51.988;7.646;2023-08-17T10:38:23;12.75;;;7.68;;
13263;SDS011;6700;51.988;7.646;2023-08-17T10:41:07;8.63;;;7.43;;
13263;SDS011;6700;51.988;7.646;2023-08-17T10:43:58;14.50;;;7.28;;
13263;SDS011;6700;51.988;7.646;2023-08-17T10:46:31;10.85;;;7.60;;
13263;SDS011;6700;51.988;7.646;2023-08-17T10:49:05;8.80;;;7.88;;
13263;SDS011;6700;51.988;7.646;2023-08-17T10:51:33;9.70;;;7.88;;
13263;SDS011;6700;51.988;7.646;2023-08-17T10:54:02;9.90;;;7.63;;
13263;SDS011;6700;51.988;7.646;2023-08-17T10:56:29;12.32;;;7.30;;
13263;SDS011;6700;51.988;7.646;2023-08-17T10:59:00;7.88;;;7.18;;
13263;SDS011;6700;51.988;7.646;2023-08-17T11:01:39;10.27;;;7.28;;
13263;SDS011;6700;51.988;7.646;2023-08-17T11:04:25;8.68;;;7.10;;
13263;SDS011;6700;51.988;7.646;2023-08-17T11:07:01;9.98;;;7.82;;
13263;SDS011;6700;51.988;7.646;2023-08-17T11:09:30;10.52;;;7.50;;
13263;SDS011;6700;51.988;7.646;2023-08-17T11:11:57;11.95;;;8.57;;
13263;SDS011;6700;51.988;7.646;2023-08-17T11:14:32;11.18;;;8.95;;
13263;SDS011;6700;51.988;7.646;2023-08-17T11:16:59;9.52;;;7.90;;
13263;SDS011;6700;51.988;7.646;2023-08-17T11:19:31;10.13;;;8.18;;
13263;SDS011;6700;51.988;7.646;2023-08-17T11:21:59;10.82;;;8.27;;
13263;SDS011;6700;51.988;7.646;2023-08-17T11:24:27;9.15;;;7.68;;
13263;SDS011;6700;51.988;7.646;2023-08-17T11:26:55;11.20;;;8.00;;
13263;SDS011;6700;51.988;7.646;2023-08-17T11:29:22;11.20;;;8.30;;
13263;SDS011;6700;51.988;7.646;2023-08-17T11:31:50;13.13;;;8.32;;
13263;SDS011;6700;51.988;7.646;2023-08-17T11:34:17;13.73;;;9.32;;
13263;SDS011;6700;51.988;7.646;2023-08-17T11:36:44;12.80;;;9.32;;
13263;SDS011;6700;51.988;7.646;2023-08-17T11:39:11;12.18;;;9.32;;
13263;SDS011;6700;51.988;7.646;2023-08-17T11:41:40;9.68;;;8.60;;
13263;SDS011;6700;51.988;7.646;2023-08-17T11:44:07;12.05;;;9.05;;
13263;SDS011;6700;51.988;7.646;2023-08-17T11:46:34;15.68;;;9.88;;
13263;SDS011;6700;51.988;7.646;2023-08-17T11:49:02;11.40;;;9.25;;
13263;SDS011;6700;51.988;7.646;2023-08-17T11:51:34;12.15;;;9.43;;
13263;SDS011;6700;51.988;7.646;2023-08-17T11:54:01;14.07;;;9.93;;
13263;SDS011;6700;51.988;7.646;2023-08-17T11:56:31;12.23;;;9.48;;
13263;SDS011;6700;51.988;7.646;2023-08-17T11:58:58;12.75;;;9.60;;
13263;SDS011;6700;51.988;7.646;2023-08-17T12:01:25;10.80;;;9.07;;
13263;SDS011;6700;51.988;7.646;2023-08-17T12:03:52;14.18;;;9.88;;
13263;SDS011;6700;51.988;7.646;2023-08-17T12:06:19;12.50;;;9.13;;
13263;SDS011;6700;51.988;7.646;2023-08-17T12:08:47;13.10;;;9.32;;
13263;SDS011;6700;51.988;7.646;2023-08-17T12:11:15;13.18;;;8.82;;
13263;SDS011;6700;51.988;7.646;2023-08-17T12:13:48;10.55;;;8.85;;
13263;SDS011;6700;51.988;7.646;2023-08-17T12:16:16;11.20;;;8.73;;
13263;SDS011;6700;51.988;7.646;2023-08-17T12:18:44;13.55;;;9.10;;
13263;SDS011;6700;51.988;7.646;2023-08-17T12:21:12;15.00;;;9.98;;
13263;SDS011;6700;51.988;7.646;2023-08-17T12:23:39;12.00;;;9.45;;
13263;SDS011;6700;51.988;7.646;2023-08-17T12:26:07;14.88;;;10.07;;
13263;SDS011;6700;51.988;7.646;2023-08-17T12:28:34;10.75;;;9.38;;
13263;SDS011;6700;51.988;7.646;2023-08-17T12:31:01;10.75;;;8.98;;
13263;SDS011;6700;51.988;7.646;2023-08-17T12:33:29;13.23;;;9.85;;
13263;SDS011;6700;51.988;7.646;2023-08-17T12:35:56;14.38;;;11.90;;
13263;SDS011;6700;51.988;7.646;2023-08-17T12:38:24;13.82;;;12.10;;
13263;SDS011;6700;51.988;7.646;2023-08-17T12:40:52;15.55;;;11.75;;
13263;SDS011;6700;51.988;7.646;2023-08-17T12:43:19;13.57;;;10.98;;
13263;SDS011;6700;51.988;7.646;2023-08-17T12:45:46;12.75;;;9.75;;
13263;SDS011;6700;51.988;7.646;2023-08-17T12:48:14;16.40;;;11.10;;
13263;SDS011;6700;51.988;7.646;2023-08-17T12:50:41;11.15;;;9.95;;
13263;SDS011;6700;51.988;7.646;2023-08-17T12:53:10;19.15;;;9.98;;
13263;SDS011;6700;51.988;7.646;2023-08-17T12:55:37;12.30;;;11.18;;
13263;SDS011;6700;51.988;7.646;2023-08-17T12:58:07;12.35;;;10.02;;
13263;SDS011;6700;51.988;7.646;2023-08-17T13:00:36;12.45;;;9.73;;
13263;SDS011;6700;51.988;7.646;2023-08-17T13:03:07;11.52;;;9.45;;
13263;SDS011;6700;51.988;7.646;2023-08-17T13:05:37;12.25;;;9.85;;
13263;SDS011;6700;51.988;7.646;2023-08-17T13:08:06;13.05;;;11.30;;
13263;SDS011;6700;51.988;7.646;2023-08-17T13:10:38;14.13;;;12.15;;
13263;SDS011;6700;51.988;7.646;2023-08-17T13:13:07;14.52;;;12.55;;
13263;SDS011;6700;51.988;7.646;2023-08-17T13:15:37;15.98;;;12.93;;
13263;SDS011;6700;51.988;7.646;2023-08-17T13:18:04;17.60;;;14.10;;
13263;SDS011;6700;51.988;7.646;2023-08-17T13:20:32;16.90;;;14.77;;
13263;SDS011;6700;51.988;7.646;2023-08-17T13:23:00;16.73;;;14.20;;
13263;SDS011;6700;51.988;7.646;2023-08-17T13:25:27;18.90;;;13.60;;
13263;SDS011;6700;51.988;7.646;2023-08-17T13:27:57;14.20;;;12.80;;
13263;SDS011;6700;51.988;7.646;2023-08-17T13:30:24;15.90;;;13.35;;
13263;SDS011;6700;51.988;7.646;2023-08-17T13:32:51;16.52;;;13.27;;
13263;SDS011;6700;51.988;7.646;2023-08-17T13:35:18;13.63;;;11.95;;
13263;SDS011;6700;51.988;7.646;2023-08-17T13:37:50;15.27;;;12.05;;
13263;SDS011;6700;51.988;7.646;2023-08-17T13:40:17;15.93;;;11.60;;
13263;SDS011;6700;51.988;7.646;2023-08-17T13:42:45;15.25;;;12.05;;
13263;SDS011;6700;51.988;7.646;2023-08-17T13:45:12;13.43;;;11.60;;
13263;SDS011;6700;51.988;7.646;2023-08-17T13:47:39;13.75;;;12.35;;
13263;SDS011;6700;51.988;7.646;2023-08-17T13:50:06;13.70;;;12.40;;
13263;SDS011;6700;51.988;7.646;2023-08-17T13:52:34;18.42;;;12.23;;
13263;SDS011;6700;51.988;7.646;2023-08-17T13:55:01;11.90;;;10.63;;
13263;SDS011;6700;51.988;7.646;2023-08-17T13:57:28;14.23;;;12.73;;
13263;SDS011;6700;51.988;7.646;2023-08-17T13:59:55;14.75;;;11.98;;
13263;SDS011;6700;51.988;7.646;2023-08-17T14:02:23;15.38;;;13.77;;
13263;SDS011;6700;51.988;7.646;2023-08-17T14:04:53;15.18;;;11.45;;
13263;SDS011;6700;51.988;7.646;2023-08-17T14:07:20;13.05;;;11.75;;
13263;SDS011;6700;51.988;7.646;2023-08-17T14:09:47;13.15;;;11.73;;
13263;SDS011;6700;51.988;7.646;2023-08-17T14:12:32;13.95;;;10.65;;
13263;SDS011;6700;51.988;7.646;2023-08-17T14:15:01;12.40;;;11.00;;
13263;SDS011;6700;51.988;7.646;2023-08-17T14:17:30;11.65;;;9.75;;
13263;SDS011;6700;51.988;7.646;2023-08-17T14:20:01;12.75;;;11.40;;
13263;SDS011;6700;51.988;7.646;2023-08-17T14:22:31;12.15;;;10.95;;
13263;SDS011;6700;51.988;7.646;2023-08-17T14:24:58;11.50;;;9.98;;
13263;SDS011;6700;51.988;7.646;2023-08-17T14:27:26;11.57;;;10.35;;
13263;SDS011;6700;51.988;7.646;2023-08-17T14:29:54;10.45;;;9.40;;
13263;SDS011;6700;51.988;7.646;2023-08-17T14:32:22;9.63;;;8.63;;
13263;SDS011;6700;51.988;7.646;2023-08-17T14:34:49;9.98;;;8.73;;
13263;SDS011;6700;51.988;7.646;2023-08-17T14:37:16;10.45;;;9.40;;
13263;SDS011;6700;51.988;7.646;2023-08-17T14:39:44;10.68;;;9.60;;
13263;SDS011;6700;51.988;7.646;2023-08-17T14:42:12;12.50;;;10.77;;
13263;SDS011;6700;51.988;7.646;2023-08-17T14:44:39;10.98;;;9.70;;
13263;SDS011;6700;51.988;7.646;2023-08-17T14:47:08;12.20;;;10.98;;
13263;SDS011;6700;51.988;7.646;2023-08-17T14:49:37;13.93;;;10.68;;
13263;SDS011;6700;51.988;7.646;2023-08-17T14:52:05;11.18;;;10.07;;
13263;SDS011;6700;51.988;7.646;2023-08-17T14:54:32;11.15;;;10.10;;
13263;SDS011;6700;51.988;7.646;2023-08-17T14:56:59;10.80;;;9.55;;
13263;SDS011;6700;51.988;7.646;2023-08-17T14:59:26;10.88;;;9.82;;
13263;SDS011;6700;51.988;7.646;2023-08-17T15:01:54;12.02;;;9.88;;
13263;SDS011;6700;51.988;7.646;2023-08-17T15:04:22;11.35;;;8.55;;